WetterOnline ( https://www.wetteronline.at )

Wetter aktuell Zingst

Aktuelles Wetter: Barth (7m)

6-stündlich | Neueste Meldungen
Ortszeit Temperatur Wetter
Di, 27.09. 8:00 10.3° C leichter Regen
Di, 27.09. 2:00 11.6° C bedeckt
Mo, 26.09. 20:00 12.8° C leichter Regen
Mo, 26.09. 14:00 14.7° C bedeckt
Mo, 26.09. 8:00 9.5° C bewölkt
Mo, 26.09. 2:00 11.0° C bewölkt
So, 25.09. 20:00 13.0° C bedeckt
So, 25.09. 14:00 14.8° C bedeckt
Ortszeit Temperatur Wetter
Di, 27.09. 13:00 12.7° C leichter Regen
Di, 27.09. 12:50 12.7° C leichter Regen
Di, 27.09. 12:40 12.6° C Sprühregen
Di, 27.09. 12:30 12.4° C bedeckt
Di, 27.09. 12:20 12.4° C bedeckt
Di, 27.09. 12:10 12.7° C bedeckt
Di, 27.09. 12:00 12.2° C Sprühregen
Di, 27.09. 11:30 11.7° C bedeckt
Di, 27.09. 11:00 11.6° C Regen
Di, 27.09. 10:30 11.5° C leichter Regen
Di, 27.09. 10:00 11.3° C bedeckt
Ortszeit Relative Feuchte Sichtweite
Di, 27.09. 8:00 92% 13 km
Di, 27.09. 2:00 76% 60 km
Mo, 26.09. 20:00 73% 50 km
Mo, 26.09. 14:00 65% 50 km
Mo, 26.09. 8:00 87% 45 km
Mo, 26.09. 2:00 87% 55 km
So, 25.09. 20:00 89% 22 km
So, 25.09. 14:00 78% 60 km
Ortszeit Relative Feuchte Sichtweite
Di, 27.09. 13:00 86% 35 km
Di, 27.09. 12:50 86% -
Di, 27.09. 12:40 85% -
Di, 27.09. 12:30 85% 55 km
Di, 27.09. 12:20 85% -
Di, 27.09. 12:10 86% -
Di, 27.09. 12:00 89% 40 km
Di, 27.09. 11:30 89% 55 km
Di, 27.09. 11:00 90% 50 km
Di, 27.09. 10:30 90% 30 km
Di, 27.09. 10:00 89% 40 km
Ortszeit Niederschlagsmenge Niederschlagsart
Di, 27.09. 8:00 0.4 l/m2 in 12 Std. Regen
Di, 27.09. 2:00 0.1 l/m2 in 6 Std. Regen
Mo, 26.09. 20:00 0.1 l/m2 in 12 Std. Regen
Mo, 26.09. 14:00 0.0 l/m2 in 6 Std. -
Mo, 26.09. 8:00 0.1 l/m2 in 12 Std. -
Mo, 26.09. 2:00 0.1 l/m2 in 6 Std. Regen
So, 25.09. 20:00 0.1 l/m2 in 12 Std. Sprühregen
So, 25.09. 14:00 0.1 l/m2 in 6 Std. Regen
Ortszeit Niederschlagsmenge Niederschlagsart
Di, 27.09. 13:00 <0.05 l/m2 in 1 Std. Regen
Di, 27.09. 12:50 keine Meldung -
Di, 27.09. 12:40 keine Meldung -
Di, 27.09. 12:30 <0.05 l/m2 in 1 Std. Schnee
Di, 27.09. 12:20 keine Meldung -
Di, 27.09. 12:10 keine Meldung -
Di, 27.09. 12:00 <0.05 l/m2 in 1 Std. Regen
Di, 27.09. 11:30 <0.05 l/m2 in 1 Std. Schneeregen
Di, 27.09. 11:00 <0.05 l/m2 in 1 Std. Regen
Di, 27.09. 10:30 <0.05 l/m2 in 1 Std. -
Di, 27.09. 10:00 <0.05 l/m2 in 1 Std. -
Ortszeit Stärke Spitze Richtung
km/h Bft. km/h Grad Sektor
Di, 27.09. 8:00 14 3 25 150° SO
Di, 27.09. 2:00 15 3 35 150° SO
Mo, 26.09. 20:00 18 3 47 210° SW
Mo, 26.09. 14:00 24 4 37 190° S
Mo, 26.09. 8:00 11 2 25 200° S
Mo, 26.09. 2:00 11 2 24 250° W
So, 25.09. 20:00 6 1 19 230° SW
So, 25.09. 14:00 7 2 14 160° S
Ortszeit Stärke Spitze Richtung
km/h Bft. km/h Grad Sektor
Di, 27.09. 13:00 20 4 28 150° SO
Di, 27.09. 12:50 20 4 - 150° SO
Di, 27.09. 12:40 18 3 - 150° SO
Di, 27.09. 12:30 18 3 29 150° SO
Di, 27.09. 12:20 18 3 - 150° SO
Di, 27.09. 12:10 18 3 - 150° SO
Di, 27.09. 12:00 17 3 28 140° SO
Di, 27.09. 11:30 17 3 26 160° S
Di, 27.09. 11:00 15 3 31 140° SO
Di, 27.09. 10:30 18 3 32 150° SO
Di, 27.09. 10:00 17 3 26 140° SO
Ortszeit Untergrenze Bedeckung Gattung
total tief tief mittel hoch
Di, 27.09. 8:00 1080 m 7/8 7/8 - - -
Di, 27.09. 2:00 1500 m 8/8 8/8 - - -
Mo, 26.09. 20:00 1500 m 7/8 7/8 - - -
Mo, 26.09. 14:00 840 m 8/8 8/8 - - -
Mo, 26.09. 8:00 2100 m 8/8 7/8 - - -
Mo, 26.09. 2:00 960 m 7/8 7/8 - - -
So, 25.09. 20:00 630 m 8/8 8/8 - - -
So, 25.09. 14:00 1140 m 8/8 8/8 - - -
Ortszeit Bedeckungsgrad in Achtel und Wolkenuntergrenze
Di, 27.09. 13:00 3(390m) 7(720m) 8(1050m)
Di, 27.09. 12:50 3(390m) 7(720m) 8(1050m)
Di, 27.09. 12:40 8
Di, 27.09. 12:30 6(450m) 7(750m) 8(990m)
Di, 27.09. 12:20 6(450m) 7(750m) 8(990m)
Di, 27.09. 12:10 8
Di, 27.09. 12:00 4(360m) 8(810m) 8(1290m)
Di, 27.09. 11:30 7(330m) 7(510m) 8(750m)
Di, 27.09. 11:00 7(360m) 7(510m) 8(1320m)
Di, 27.09. 10:30 5(750m) 7(1500m) 7(2700m)
Di, 27.09. 10:00 7(810m) 8(1500m) 8(3900m)
Ortszeit Luftdruck NN (hPa) Tendenz (hPa in 3 Std.)
Di, 27.09. 8:00 993 - 0,8
Di, 27.09. 2:00 995 - 1,7
Mo, 26.09. 20:00 998 - 0,8
Mo, 26.09. 14:00 1001 - 1,5
Mo, 26.09. 8:00 1003 - 1,7
Mo, 26.09. 2:00 1006 - 1,2
So, 25.09. 20:00 1009 - 1,0
So, 25.09. 14:00 1011 - 1,1
Ortszeit Luftdruck NN (hPa) Tendenz (hPa in 3 Std.)
Di, 27.09. 13:00 992 - 0,2
Di, 27.09. 12:50 992 keine Meldung
Di, 27.09. 12:40 992 keine Meldung
Di, 27.09. 12:30 992 - 0,3
Di, 27.09. 12:20 992 keine Meldung
Di, 27.09. 12:10 993 keine Meldung
Di, 27.09. 12:00 993 0,0
Di, 27.09. 11:30 993 + 0,1
Di, 27.09. 11:00 993 0,0
Di, 27.09. 10:30 993 0,0
Di, 27.09. 10:00 993 - 0,1
Ortszeit Schneehöhe (cm)
Di, 27.09. 8:00 0
Di, 27.09. 2:00 0
Mo, 26.09. 20:00 0
Mo, 26.09. 14:00 0
Mo, 26.09. 8:00 0
Mo, 26.09. 2:00 0
So, 25.09. 20:00 0
So, 25.09. 14:00 0
Ortszeit Schneehöhe (cm)
Di, 27.09. 13:00 0
Di, 27.09. 12:50 0
Di, 27.09. 12:40 0
Di, 27.09. 12:30 0
Di, 27.09. 12:20 0
Di, 27.09. 12:10 0
Di, 27.09. 12:00 0
Di, 27.09. 11:30 0
Di, 27.09. 11:00 0
Di, 27.09. 10:30 0
Di, 27.09. 10:00 0
Link zu dieser Seite / Seite empfehlen

Das Wetter in ...